Aviation Digital Data Service (ADDS)

Output produced by METARs form (1812 UTC 21 September 2019)
found at http://aviationweather.gov/metar/data/
 
KUTS 211720Z 2118/2218 14007KT P6SM SCT025 
     FM212000 14007KT P6SM SCT030 BKN100 
     FM221000 VRB03KT P6SM BKN025 
     FM221500 17007KT P6SM SCT030